createdAt,value
2019-06-15T00:00:44.726Z,96005.75
2019-06-15T00:03:13.432Z,95991.14
2019-06-15T00:05:42.048Z,95972.84
2019-06-15T00:08:10.637Z,95950.40
2019-06-15T00:10:39.318Z,95934.84
2019-06-15T00:13:07.956Z,95916.57
2019-06-15T00:15:36.644Z,95901.02
2019-06-15T00:18:05.451Z,95871.14
2019-06-15T00:20:34.110Z,95877.44
2019-06-15T00:23:02.798Z,95922.05
2019-06-15T00:25:31.467Z,95937.08
2019-06-15T00:28:00.210Z,95962.36
2019-06-15T00:30:28.857Z,95966.27
2019-06-15T00:32:57.544Z,95958.12
2019-06-15T00:35:26.208Z,95956.05
2019-06-15T00:37:54.895Z,95956.29
2019-06-15T00:40:23.599Z,95959.98
2019-06-15T00:42:52.299Z,95956.83
2019-06-15T00:45:20.935Z,95948.15
2019-06-15T00:47:49.629Z,95941.31
2019-06-15T00:50:18.285Z,95942.43
2019-06-15T00:52:46.913Z,95940.14
2019-06-15T00:55:15.820Z,95941.77
2019-06-15T00:57:44.447Z,95937.21
2019-06-15T01:00:13.323Z,95926.44
2019-06-15T01:02:41.970Z,95922.63
2019-06-15T01:05:10.668Z,95916.54
2019-06-15T01:07:39.221Z,95912.31
2019-06-15T01:10:28.615Z,95898.74
2019-06-15T01:12:57.270Z,95901.11
2019-06-15T01:15:25.960Z,95872.89
2019-06-15T01:17:54.527Z,95869.44
2019-06-15T01:21:03.010Z,95872.60
2019-06-15T01:23:31.708Z,95864.01
2019-06-15T01:26:00.525Z,95863.37
2019-06-15T01:28:29.223Z,95858.19
2019-06-15T01:31:18.419Z,95854.39
2019-06-15T01:33:47.121Z,95853.72
2019-06-15T01:36:15.792Z,95846.91
2019-06-15T01:38:44.476Z,95846.00
2019-06-15T01:41:13.109Z,95856.25
2019-06-15T01:43:41.809Z,95855.78
2019-06-15T01:46:10.472Z,95838.43
2019-06-15T01:48:39.169Z,95839.97
2019-06-15T01:51:07.874Z,95835.84
2019-06-15T01:53:36.424Z,95833.22
2019-06-15T01:56:05.102Z,95830.63
2019-06-15T01:58:33.770Z,95833.58
2019-06-15T02:01:02.499Z,95832.05
2019-06-15T02:03:31.107Z,95829.52
2019-06-15T02:05:59.997Z,95834.55
2019-06-15T02:08:28.643Z,95831.92
2019-06-15T02:10:57.338Z,95831.25
2019-06-15T02:13:25.988Z,95831.25
2019-06-15T02:15:54.668Z,95835.72
2019-06-15T02:18:23.337Z,95827.66
2019-06-15T02:20:52.029Z,95838.19
2019-06-15T02:23:20.674Z,95826.57
2019-06-15T02:25:49.381Z,95834.63
2019-06-15T02:28:18.091Z,95830.61
2019-06-15T02:30:46.787Z,95831.05
2019-06-15T02:33:15.467Z,95840.52
2019-06-15T02:36:04.801Z,95838.68
2019-06-15T02:38:33.519Z,95837.48
2019-06-15T02:44:12.112Z,95842.23
2019-06-15T02:46:40.777Z,95846.91
2019-06-15T02:49:09.412Z,95857.77
2019-06-15T02:55:08.799Z,95859.52
2019-06-15T02:57:37.458Z,95863.31
2019-06-15T03:00:44.668Z,95873.72
2019-06-15T03:03:33.967Z,95880.11
2019-06-15T03:06:02.754Z,95882.50
2019-06-15T03:08:31.474Z,95883.80
2019-06-15T03:11:00.181Z,95882.62
2019-06-15T03:13:28.862Z,95886.39
2019-06-15T03:15:57.582Z,95889.46
2019-06-15T03:18:26.275Z,95897.69
2019-06-15T03:21:14.215Z,95906.80
2019-06-15T03:23:42.902Z,95910.04
2019-06-15T03:26:11.565Z,95919.80
2019-06-15T03:28:40.185Z,95927.51
2019-06-15T03:31:08.861Z,95933.93
2019-06-15T03:33:58.370Z,95949.96
2019-06-15T03:37:06.810Z,95945.28
2019-06-15T03:39:35.326Z,95959.88
2019-06-15T03:42:03.990Z,95975.14
2019-06-15T03:44:32.589Z,95981.80
2019-06-15T03:47:01.053Z,95989.14
2019-06-15T03:49:29.630Z,96010.78
2019-06-15T03:51:58.164Z,96022.83
2019-06-15T03:54:26.736Z,96042.57
2019-06-15T03:56:55.198Z,96050.61
2019-06-15T03:59:23.842Z,96066.03
2019-06-15T04:01:52.648Z,96065.61
2019-06-15T04:04:21.310Z,96078.09
2019-06-15T04:06:49.838Z,96095.27
2019-06-15T04:09:40.055Z,96098.72
2019-06-15T04:12:08.769Z,96113.48
2019-06-15T04:14:37.640Z,96119.95
2019-06-15T04:17:06.212Z,96132.06
2019-06-15T04:19:34.907Z,96140.73
2019-06-15T04:22:03.589Z,96146.03
2019-06-15T04:24:32.289Z,96145.95
2019-06-15T04:27:00.867Z,96152.45
2019-06-15T04:29:29.513Z,96164.57
2019-06-15T04:31:58.161Z,96158.63
2019-06-15T04:34:26.847Z,96167.05
2019-06-15T04:36:55.534Z,96173.59
2019-06-15T04:39:24.114Z,96177.15
2019-06-15T04:41:52.778Z,96190.87
2019-06-15T04:44:22.405Z,96188.17
2019-06-15T04:46:50.951Z,96187.92
2019-06-15T04:49:19.653Z,96192.34
2019-06-15T04:51:48.321Z,96190.30
2019-06-15T04:54:16.927Z,96185.34
2019-06-15T04:56:50.878Z,96197.83
2019-06-15T05:01:55.245Z,96199.50
2019-06-15T05:04:23.899Z,96211.20
2019-06-15T05:06:52.532Z,96214.30
2019-06-15T05:09:21.242Z,96214.73
2019-06-15T05:11:49.891Z,96225.37
2019-06-15T05:14:18.578Z,96239.69
2019-06-15T05:16:47.229Z,96231.23
2019-06-15T05:19:16.104Z,96230.30
2019-06-15T05:21:44.784Z,96240.62
2019-06-15T05:24:13.478Z,96243.47
2019-06-15T05:26:42.152Z,96254.95
2019-06-15T05:29:10.804Z,96256.69
2019-06-15T05:31:39.504Z,96262.50
2019-06-15T05:34:08.220Z,96268.30
2019-06-15T05:36:36.849Z,96261.85
2019-06-15T05:39:26.173Z,96255.94
2019-06-15T05:41:54.823Z,96272.15
2019-06-15T05:44:23.507Z,96282.11
2019-06-15T05:46:52.207Z,96287.00
2019-06-15T05:49:20.911Z,96288.52
2019-06-15T05:51:49.505Z,96298.96
2019-06-15T05:54:18.183Z,96302.64
2019-06-15T05:56:46.798Z,96305.66
2019-06-15T05:59:15.437Z,96301.09
2019-06-15T06:01:44.123Z,96301.50
2019-06-15T06:04:12.763Z,96308.74
2019-06-15T06:06:41.455Z,96320.13
2019-06-15T06:09:10.094Z,96323.31
2019-06-15T06:11:38.863Z,96321.58
2019-06-15T06:14:07.503Z,96323.04
2019-06-15T06:16:36.158Z,96328.41
2019-06-15T06:19:04.855Z,96325.06
2019-06-15T06:21:33.518Z,96329.30
2019-06-15T06:24:02.192Z,96332.33
2019-06-15T06:26:30.840Z,96336.90
2019-06-15T06:28:59.530Z,96332.88
2019-06-15T06:31:28.210Z,96330.44
2019-06-15T06:33:56.795Z,96327.34
2019-06-15T06:36:25.495Z,96341.39
2019-06-15T06:38:54.152Z,96336.69
2019-06-15T06:41:22.730Z,96357.52
2019-06-15T06:43:51.414Z,96366.13
2019-06-15T06:46:20.054Z,96365.99
2019-06-15T06:48:48.738Z,96378.92
2019-06-15T06:51:17.428Z,96376.19
2019-06-15T06:53:46.045Z,96378.99
2019-06-15T06:56:14.744Z,96386.09
2019-06-15T06:58:43.404Z,96389.77
2019-06-15T07:01:12.057Z,96392.31
2019-06-15T07:03:40.815Z,96379.24
2019-06-15T07:06:09.475Z,96385.61
2019-06-15T07:08:38.224Z,96380.33
2019-06-15T07:11:06.798Z,96381.89
2019-06-15T07:13:35.406Z,96390.48
2019-06-15T07:16:04.063Z,96386.56
2019-06-15T07:18:32.745Z,96398.19
2019-06-15T07:21:01.401Z,96392.09
2019-06-15T07:23:31.992Z,96396.45
2019-06-15T07:26:00.592Z,96403.52
2019-06-15T07:28:29.324Z,96397.30
2019-06-15T07:30:57.975Z,96401.58
2019-06-15T07:33:26.745Z,96410.92
2019-06-15T07:35:55.422Z,96413.93
2019-06-15T07:38:24.077Z,96413.76
2019-06-15T07:40:52.695Z,96418.28
2019-06-15T07:43:21.346Z,96408.97
2019-06-15T07:45:49.967Z,96419.60
2019-06-15T07:48:18.630Z,96428.52
2019-06-15T07:50:47.326Z,96430.70
2019-06-15T07:53:16.756Z,96437.59
2019-06-15T07:56:05.671Z,96445.91
2019-06-15T07:58:34.535Z,96452.22
2019-06-15T08:01:03.749Z,96450.20
2019-06-15T08:03:32.677Z,96445.49
2019-06-15T08:06:01.410Z,96443.44
2019-06-15T08:08:30.084Z,96445.18
2019-06-15T08:11:18.052Z,96455.23
2019-06-15T08:13:46.532Z,96454.02
2019-06-15T08:16:15.143Z,96456.31
2019-06-15T08:18:43.884Z,96463.28
2019-06-15T08:21:12.610Z,96461.38
2019-06-15T08:23:41.444Z,96465.95
2019-06-15T08:26:10.087Z,96470.22
2019-06-15T08:28:40.559Z,96477.94
2019-06-15T08:31:09.467Z,96472.31
2019-06-15T08:33:58.910Z,96474.53
2019-06-15T08:36:27.554Z,96476.70
2019-06-15T08:38:56.242Z,96483.94
2019-06-15T08:41:24.914Z,96479.86
2019-06-15T08:43:53.591Z,96483.67
2019-06-15T08:46:22.290Z,96486.02
2019-06-15T08:48:50.922Z,96489.80
2019-06-15T08:51:19.521Z,96481.59
2019-06-15T08:53:48.169Z,96481.30
2019-06-15T08:56:16.869Z,96482.89
2019-06-15T08:58:55.157Z,96489.10
2019-06-15T09:01:35.098Z,96490.86
2019-06-15T09:04:03.797Z,96498.28
2019-06-15T09:06:32.438Z,96495.95
2019-06-15T09:09:01.094Z,96497.35
2019-06-15T09:11:29.790Z,96499.83
2019-06-15T09:13:58.509Z,96497.28
2019-06-15T09:16:27.088Z,96505.18
2019-06-15T09:18:57.593Z,96507.56
2019-06-15T09:21:26.253Z,96516.67
2019-06-15T09:23:54.922Z,96512.92
2019-06-15T09:27:03.391Z,96516.05
2019-06-15T09:29:32.091Z,96521.92
2019-06-15T09:32:00.795Z,96517.86
2019-06-15T09:34:29.433Z,96512.89
2019-06-15T09:36:58.112Z,96516.13
2019-06-15T09:39:26.769Z,96512.22
2019-06-15T09:41:55.441Z,96504.20
2019-06-15T09:45:03.853Z,96500.15
2019-06-15T09:47:32.532Z,96511.33
2019-06-15T09:50:01.102Z,96517.89
2019-06-15T09:52:29.813Z,96516.64
2019-06-15T09:54:58.472Z,96527.01
2019-06-15T09:57:27.153Z,96533.67
2019-06-15T09:59:55.773Z,96532.94
2019-06-15T10:02:24.454Z,96533.73
2019-06-15T10:04:53.135Z,96533.19
2019-06-15T10:07:21.850Z,96536.48
2019-06-15T10:09:50.526Z,96542.52
2019-06-15T10:12:19.246Z,96550.41
2019-06-15T10:14:47.842Z,96553.03
2019-06-15T10:17:16.496Z,96557.93
2019-06-15T10:19:45.161Z,96566.97
2019-06-15T10:22:13.837Z,96568.86
2019-06-15T10:24:42.429Z,96567.25
2019-06-15T10:27:11.093Z,96566.91
2019-06-15T10:29:42.224Z,96562.72
2019-06-15T10:32:10.228Z,96572.41
2019-06-15T10:34:38.846Z,96562.17
2019-06-15T10:37:07.486Z,96568.52
2019-06-15T10:39:36.177Z,96564.52
2019-06-15T10:42:04.824Z,96567.44
2019-06-15T10:44:33.569Z,96571.66
2019-06-15T10:47:02.230Z,96571.25
2019-06-15T10:49:30.915Z,96574.23
2019-06-15T10:51:59.534Z,96573.17
2019-06-15T10:54:28.180Z,96572.13
2019-06-15T10:56:56.874Z,96569.53
2019-06-15T10:59:25.586Z,96564.20
2019-06-15T11:01:54.272Z,96569.80
2019-06-15T11:04:22.884Z,96560.56
2019-06-15T11:06:51.588Z,96573.34
2019-06-15T11:09:20.271Z,96568.11
2019-06-15T11:11:48.959Z,96571.52
2019-06-15T11:14:17.663Z,96571.85
2019-06-15T11:17:26.150Z,96579.11
2019-06-15T11:19:54.818Z,96581.98
2019-06-15T11:22:23.452Z,96580.47
2019-06-15T11:24:52.165Z,96584.42
2019-06-15T11:27:20.816Z,96591.39
2019-06-15T11:29:49.476Z,96584.60
2019-06-15T11:32:18.170Z,96592.39
2019-06-15T11:34:46.924Z,96595.31
2019-06-15T11:37:15.573Z,96602.25
2019-06-15T11:39:44.273Z,96598.97
2019-06-15T11:42:12.837Z,96598.79
2019-06-15T11:44:41.514Z,96591.84
2019-06-15T11:47:10.191Z,96598.08
2019-06-15T11:49:38.901Z,96594.43
2019-06-15T11:52:07.837Z,96600.63
2019-06-15T11:54:36.457Z,96598.83
2019-06-15T11:57:05.204Z,96590.13
2019-06-15T11:59:33.925Z,96590.82
2019-06-15T12:05:10.858Z,96591.27
2019-06-15T12:07:39.585Z,96594.69
2019-06-15T12:10:48.052Z,96601.66
2019-06-15T12:13:16.686Z,96602.39
2019-06-15T12:15:45.361Z,96602.00
2019-06-15T12:18:14.192Z,96603.25
2019-06-15T12:20:42.859Z,96600.77
2019-06-15T12:23:11.510Z,96602.53
2019-06-15T12:25:40.210Z,96594.34
2019-06-15T12:28:09.405Z,96599.91
2019-06-15T12:31:18.111Z,96596.42
2019-06-15T12:33:46.807Z,96596.70
2019-06-15T12:36:19.247Z,96590.48
2019-06-15T12:38:45.793Z,96599.30
2019-06-15T12:41:14.472Z,96601.64
2019-06-15T12:43:43.128Z,96602.30
2019-06-15T12:46:11.942Z,96599.34
2019-06-15T12:49:20.384Z,96602.52
2019-06-15T12:51:49.031Z,96602.35
2019-06-15T12:54:17.709Z,96597.47
2019-06-15T12:56:46.359Z,96590.81
2019-06-15T12:59:15.045Z,96596.94
2019-06-15T13:01:43.733Z,96585.02
2019-06-15T13:04:12.359Z,96601.97
2019-06-15T13:06:41.016Z,96594.85
2019-06-15T13:09:09.637Z,96603.27
2019-06-15T13:11:38.275Z,96605.67
2019-06-15T13:14:06.974Z,96601.50
2019-06-15T13:16:39.286Z,96600.38
2019-06-15T13:19:06.260Z,96594.51
2019-06-15T13:21:34.939Z,96599.34
2019-06-15T13:24:03.594Z,96591.02
2019-06-15T13:26:32.286Z,96601.89
2019-06-15T13:29:00.860Z,96606.05
2019-06-15T13:31:29.570Z,96603.17
2019-06-15T13:33:58.215Z,96611.41
2019-06-15T13:36:26.887Z,96610.13
2019-06-15T13:38:55.591Z,96600.61
2019-06-15T13:41:24.683Z,96603.84
2019-06-15T13:43:54.662Z,96600.67
2019-06-15T13:46:23.322Z,96594.84
2019-06-15T13:48:52.014Z,96598.08
2019-06-15T13:51:20.715Z,96588.94
2019-06-15T13:53:49.364Z,96591.81
2019-06-15T13:56:18.049Z,96583.84
2019-06-15T14:01:41.868Z,96592.90
2019-06-15T14:04:10.561Z,96596.17
2019-06-15T14:06:39.193Z,96596.77
2019-06-15T14:09:47.655Z,96602.35
2019-06-15T14:12:35.610Z,96592.47
2019-06-15T14:15:44.050Z,96591.27
2019-06-15T14:18:12.741Z,96595.14
2019-06-15T14:20:41.321Z,96586.22
2019-06-15T14:23:10.009Z,96579.27
2019-06-15T14:25:38.730Z,96576.31
2019-06-15T14:28:07.270Z,96577.66
2019-06-15T14:30:35.976Z,96581.04
2019-06-15T14:33:04.621Z,96586.11
2019-06-15T14:35:33.270Z,96584.15
2019-06-15T14:38:01.975Z,96585.53
2019-06-15T14:40:30.627Z,96592.12
2019-06-15T14:42:59.329Z,96590.40
2019-06-15T14:45:27.982Z,96580.47
2019-06-15T14:47:56.671Z,96585.66
2019-06-15T14:50:25.270Z,96581.02
2019-06-15T14:53:15.557Z,96579.95
2019-06-15T14:56:03.578Z,96583.05
2019-06-15T14:58:32.270Z,96572.59
2019-06-15T15:01:00.850Z,96584.23
2019-06-15T15:03:29.541Z,96585.65
2019-06-15T15:05:58.185Z,96583.84
2019-06-15T15:08:26.887Z,96579.88
2019-06-15T15:10:56.302Z,96581.83
2019-06-15T15:13:26.494Z,96574.77
2019-06-15T15:15:57.034Z,96577.83
2019-06-15T15:18:27.117Z,96575.81
2019-06-15T15:20:57.065Z,96577.55
2019-06-15T15:23:25.718Z,96576.36
2019-06-15T15:25:54.373Z,96582.59
2019-06-15T15:28:23.026Z,96573.84
2019-06-15T15:30:51.708Z,96572.39
2019-06-15T15:33:20.404Z,96580.00
2019-06-15T15:35:49.039Z,96568.80
2019-06-15T15:38:17.732Z,96576.81
2019-06-15T15:40:46.794Z,96569.99
2019-06-15T15:43:16.756Z,96578.93
2019-06-15T15:45:46.065Z,96564.50
2019-06-15T15:48:18.513Z,96567.41
2019-06-15T15:50:46.998Z,96572.77
2019-06-15T15:53:16.631Z,96565.38
2019-06-15T15:55:46.748Z,96565.83
2019-06-15T15:58:16.634Z,96562.94
2019-06-15T16:00:46.857Z,96567.02
2019-06-15T16:03:16.461Z,96569.78
2019-06-15T16:06:26.095Z,96575.38
2019-06-15T16:08:56.960Z,96568.78
2019-06-15T16:11:26.669Z,96566.61
2019-06-15T16:13:56.523Z,96566.09
2019-06-15T16:16:26.784Z,96571.95
2019-06-15T16:18:56.845Z,96567.28
2019-06-15T16:21:26.075Z,96567.72
2019-06-15T16:23:58.405Z,96572.91
2019-06-15T16:26:27.199Z,96575.12
2019-06-15T16:28:56.585Z,96572.89
2019-06-15T16:31:28.512Z,96568.12
2019-06-15T16:33:55.626Z,96565.97
2019-06-15T16:36:24.228Z,96571.05
2019-06-15T16:38:52.870Z,96574.48
2019-06-15T16:41:21.564Z,96571.70
2019-06-15T16:43:50.207Z,96561.88
2019-06-15T16:46:18.930Z,96559.12
2019-06-15T16:48:47.565Z,96554.01
2019-06-15T16:51:16.798Z,96550.09
2019-06-15T16:53:47.351Z,96549.30
2019-06-15T16:56:17.020Z,96563.20
2019-06-15T16:58:46.812Z,96558.66
2019-06-15T17:01:16.850Z,96560.31
2019-06-15T17:03:47.140Z,96567.89
2019-06-15T17:06:16.917Z,96564.36
2019-06-15T17:08:46.485Z,96572.86
2019-06-15T17:11:17.324Z,96572.04
2019-06-15T17:13:47.502Z,96578.92
2019-06-15T17:16:16.970Z,96582.52
2019-06-15T17:18:47.112Z,96580.22
2019-06-15T17:21:17.093Z,96573.27
2019-06-15T17:23:46.796Z,96572.65
2019-06-15T17:26:57.114Z,96567.02
2019-06-15T17:29:27.027Z,96569.91
2019-06-15T17:31:57.048Z,96564.05
2019-06-15T17:34:26.226Z,96555.75
2019-06-15T17:36:57.462Z,96555.75
2019-06-15T17:39:29.681Z,96557.45
2019-06-15T17:41:57.337Z,96562.23
2019-06-15T17:44:26.141Z,96561.94
2019-06-15T17:46:56.581Z,96560.01
2019-06-15T17:49:27.079Z,96557.92
2019-06-15T17:51:55.547Z,96563.80
2019-06-15T17:54:24.212Z,96552.95
2019-06-15T17:56:52.820Z,96542.08
2019-06-15T17:59:22.404Z,96550.25
2019-06-15T18:01:51.878Z,96551.55
2019-06-15T18:04:20.580Z,96542.66
2019-06-15T18:06:49.136Z,96537.89
2019-06-15T18:09:17.832Z,96534.77
2019-06-15T18:11:46.694Z,96531.20
2019-06-15T18:14:17.715Z,96533.70
2019-06-15T18:16:47.277Z,96530.98
2019-06-15T18:19:16.979Z,96533.78
2019-06-15T18:21:46.695Z,96533.31
2019-06-15T18:24:16.620Z,96533.22
2019-06-15T18:26:47.437Z,96527.98
2019-06-15T18:29:16.806Z,96530.42
2019-06-15T18:31:46.050Z,96520.91
2019-06-15T18:34:16.969Z,96522.14
2019-06-15T18:36:45.147Z,96526.80
2019-06-15T18:39:16.383Z,96533.80
2019-06-15T18:41:46.266Z,96530.55
2019-06-15T18:44:16.106Z,96531.63
2019-06-15T18:46:46.583Z,96538.14
2019-06-15T18:49:15.940Z,96533.05
2019-06-15T18:52:06.200Z,96534.49
2019-06-15T18:54:36.337Z,96534.75
2019-06-15T18:57:07.402Z,96525.27
2019-06-15T18:59:36.591Z,96514.61
2019-06-15T19:02:06.825Z,96513.02
2019-06-15T19:04:35.512Z,96507.56
2019-06-15T19:07:06.482Z,96500.48
2019-06-15T19:09:34.572Z,96502.70
2019-06-15T19:12:06.895Z,96509.77
2019-06-15T19:15:13.490Z,96506.73
2019-06-15T19:17:42.135Z,96493.28
2019-06-15T19:20:10.878Z,96506.39
2019-06-15T19:22:39.572Z,96516.96
2019-06-15T19:25:08.380Z,96518.16
2019-06-15T19:27:37.028Z,96526.09
2019-06-15T19:30:26.426Z,96525.53
2019-06-15T19:32:56.614Z,96525.75
2019-06-15T19:35:26.303Z,96538.55
2019-06-15T19:37:56.675Z,96549.41
2019-06-15T19:40:26.787Z,96548.16
2019-06-15T19:42:57.128Z,96555.00
2019-06-15T19:45:38.298Z,96548.47
2019-06-15T19:48:07.077Z,96559.12
2019-06-15T19:50:36.414Z,96568.88
2019-06-15T19:53:07.163Z,96571.36
2019-06-15T19:55:36.497Z,96566.66
2019-06-15T19:58:07.162Z,96570.64
2019-06-15T20:00:36.371Z,96575.38
2019-06-15T20:03:07.146Z,96567.27
2019-06-15T20:05:37.052Z,96562.89
2019-06-15T20:08:07.174Z,96570.51
2019-06-15T20:10:37.380Z,96555.55
2019-06-15T20:13:07.533Z,96559.60
2019-06-15T20:15:37.781Z,96559.29
2019-06-15T20:18:06.968Z,96552.75
2019-06-15T20:20:37.334Z,96557.16
2019-06-15T20:23:07.557Z,96560.91
2019-06-15T20:25:37.719Z,96567.38
2019-06-15T20:28:07.208Z,96559.45
2019-06-15T20:30:37.167Z,96554.28
2019-06-15T20:33:07.810Z,96551.71
2019-06-15T20:35:37.456Z,96565.43
2019-06-15T20:38:06.091Z,96571.55
2019-06-15T20:40:36.585Z,96589.29
2019-06-15T20:43:07.379Z,96601.22
2019-06-15T20:45:37.146Z,96604.09
2019-06-15T20:48:06.888Z,96615.60
2019-06-15T20:50:36.508Z,96636.12
2019-06-15T20:53:06.043Z,96649.88
2019-06-15T20:55:37.264Z,96662.91
2019-06-15T20:58:06.643Z,96662.00
2019-06-15T21:00:36.889Z,96659.14
2019-06-15T21:03:47.162Z,96651.77
2019-06-15T21:06:17.160Z,96657.81
2019-06-15T21:08:46.997Z,96666.34
2019-06-15T21:11:17.067Z,96672.30
2019-06-15T21:13:46.937Z,96664.85
2019-06-15T21:16:16.992Z,96666.98
2019-06-15T21:18:46.676Z,96675.96
2019-06-15T21:21:16.102Z,96686.80
2019-06-15T21:23:46.339Z,96698.78
2019-06-15T21:26:16.404Z,96707.83
2019-06-15T21:28:45.457Z,96713.06
2019-06-15T21:31:16.584Z,96723.80
2019-06-15T21:33:46.623Z,96734.23
2019-06-15T21:36:14.875Z,96744.16
2019-06-15T21:38:43.400Z,96747.38
2019-06-15T21:41:12.075Z,96747.09
2019-06-15T21:43:40.778Z,96749.30
2019-06-15T21:46:09.345Z,96744.00
2019-06-15T21:48:38.058Z,96753.45
2019-06-15T21:51:07.899Z,96756.58
2019-06-15T21:53:37.089Z,96771.42
2019-06-15T21:56:07.168Z,96773.11
2019-06-15T21:58:36.754Z,96783.98
2019-06-15T22:01:45.087Z,96791.51
2019-06-15T22:04:16.196Z,96796.67
2019-06-15T22:06:44.152Z,96793.59
2019-06-15T22:09:12.890Z,96794.04
2019-06-15T22:12:21.309Z,96797.10
2019-06-15T22:14:49.987Z,96801.53
2019-06-15T22:17:18.625Z,96802.98
2019-06-15T22:19:47.307Z,96811.25
2019-06-15T22:22:16.499Z,96807.38
2019-06-15T22:24:46.933Z,96804.89
2019-06-15T22:27:17.116Z,96808.11
2019-06-15T22:29:47.400Z,96807.70
2019-06-15T22:32:17.320Z,96817.42
2019-06-15T22:34:47.047Z,96828.05
2019-06-15T22:37:17.335Z,96838.84
2019-06-15T22:39:46.818Z,96847.52
2019-06-15T22:42:16.789Z,96848.59
2019-06-15T22:44:46.476Z,96842.20
2019-06-15T22:47:16.872Z,96855.57
2019-06-15T22:49:46.891Z,96863.67
2019-06-15T22:52:17.216Z,96863.67
2019-06-15T22:54:47.352Z,96861.62
2019-06-15T22:57:16.716Z,96878.05
2019-06-15T22:59:46.382Z,96872.98
2019-06-15T23:02:16.760Z,96885.04
2019-06-15T23:04:47.150Z,96889.06
2019-06-15T23:07:16.156Z,96882.37
2019-06-15T23:09:46.835Z,96883.76
2019-06-15T23:12:16.480Z,96878.09
2019-06-15T23:14:46.592Z,96873.48
2019-06-15T23:17:15.538Z,96864.91
2019-06-15T23:19:46.133Z,96862.38
2019-06-15T23:22:16.994Z,96857.30
2019-06-15T23:24:46.842Z,96856.30
2019-06-15T23:27:16.520Z,96847.38
2019-06-15T23:29:46.400Z,96835.11
2019-06-15T23:32:16.956Z,96830.39
2019-06-15T23:34:46.915Z,96831.17
2019-06-15T23:40:46.635Z,96809.63
2019-06-15T23:43:16.726Z,96802.27
2019-06-15T23:45:46.828Z,96798.33
2019-06-15T23:48:16.176Z,96804.35
2019-06-15T23:50:46.474Z,96811.50
2019-06-15T23:53:17.005Z,96839.66
2019-06-15T23:55:47.382Z,96854.34
2019-06-15T23:58:17.801Z,96861.55
